ADDS TAF Board (Experimental) INFO Settings
IDs: Format: Expanded Condensed

KATL - Atlanta/Hartsfield-J, GA, US

Issued at 1605 UTC 30 May 2015
Updated at: 1622 UTC 30 May 2015
Time1552Z 30/17Z 30/18Z 30/19Z 30/20Z 30/21Z 30/22Z 30/23Z 31/00Z 31/01Z 31/02Z 31/03Z 31/04Z 31/05Z
Type OBS PRVL PRVL PRVL PRVL PRVL PRVL PRVL PRVL PRVL PRVL PRVL PRVL PRVL
VIS 10 >6 >6 >6 >6 >6 >6 >6 >6 >6 >6 >6 >6 >6
CIG 55 45 50 50 50 50 50 50 50 -- -- -- -- --
Cover BKN BKN BKN BKN BKN BKN BKN BKN BKN FEW FEW FEW FEW FEW
FltCat VFR VFR VFR VFR VFR VFR VFR VFR VFR VFR VFR VFR VFR VFR
WX -- -- -- -- -- -- -- -- -- -- -- -- -- --
WDir VRB 140 150 150 150 150 150 150 150 160 160 160 160 160
WSpd 0 6 7 7 7 7 7 7 7 5 5 5 5 5
WGst -- -- -- -- -- -- -- -- -- -- -- -- -- --
R08/26
XWnd VRB -5 -6 -6 -6 -6 -6 -6 -6 -5 -5 -5 -5 -5
HWnd VRB 4 4 4 4 4 4 4 4 2 2 2 2 2
R09/27
XWnd VRB -5 -6 -6 -6 -6 -6 -6 -6 -5 -5 -5 -5 -5
HWnd VRB 4 4 4 4 4 4 4 4 2 2 2 2 2
R10/28
XWnd VRB -5 -6 -6 -6 -6 -6 -6 -6 -5 -5 -5 -5 -5
HWnd VRB 4 4 4 4 4 4 4 4 2 2 2 2 2

NOTE: TEMPO conditions in [brackets]. Keep in mind TEMPO conditions might be better (lower impact) than prevailing conditions.

Raw TAF
KATL 301605Z 3016/3118 14006KT P6SM SCT030 BKN045
  FM301800 15007KT P6SM SCT035 BKN050
  FM302100 15007KT P6SM BKN050
  FM310100 16005KT P6SM FEW060
  FM310900 17004KT P6SM BKN012
  FM311500 21003KT P6SM VCSH BKN025
  PROB30 3117/3118 3SM TSRA BKN020CB


Raw METAR
KATL 301552Z 00000KT 10SM SCT029 BKN055 BKN250 26/18 A3018 RMK AO2 SLP211 T02610183
KATL 301452Z 13004KT 10SM FEW025 SCT060 SCT250 26/18 A3019 RMK AO2 SLP214 T02560183 51003
KATL 301352Z 20005KT 10SM FEW015 SCT060 SCT250 23/18 A3019 RMK AO2 SLP213 T02330183

METAR Board
Radar Display
Forecast Discussion

TAF Board Legend

Potential Impact
Threat None Slight Moderate High
Visibility (sm) ≥5.1 5.1>X≥3 3>X≥1 <1
Ceiling (100 ft) ≥30.1 30.1>X≥10 10>X≥5 <5
Wind Speed (kt) <10 10≤X<20 20≤X<30 ≥30
Wind Gust (kt) <15 15≤X<25 25≤X<35 ≥35
Weather No Wx Reported VCTS,-TS,-FZRA,SN TS,FZRA +TS,+FZRA,+SN